This is the latest recevied weather packets stored in our database for station/object DL7HMX-13. If no packets are shown the sender has not sent any weather packets the latest 10 day(s).
| Time | Temp. | Humidity | Pressure | Rain* | Wind** | Luminosity | Snow |
|---|---|---|---|---|---|---|---|
| 1777707617 | 16.11° C | 62% | 1024 hPa | 0 mm | - | 394 W/m² | - |
| 1777707018 | 15.56° C | 65% | 1024 hPa | 0 mm | - | 373 W/m² | - |
| 1777706421 | 15.56° C | 66% | 1024 hPa | 0 mm | - | 376 W/m² | - |
| 1777705824 | 15° C | 66% | 1024.1 hPa | 0 mm | - | 352 W/m² | - |
| 1777705227 | 13.33° C | 70% | 1024.2 hPa | 0 mm | - | 325 W/m² | - |
| 1777704629 | 12.22° C | 74% | 1024.2 hPa | 0 mm | - | 304 W/m² | - |
| 1777704032 | 12.22° C | 72% | 1024.4 hPa | 0 mm | - | 272 W/m² | - |
| 1777703420 | 11.67° C | 72% | 1024.4 hPa | 0 mm | - | 246 W/m² | - |
| 1777702822 | 10.56° C | 77% | 1024.5 hPa | 0 mm | - | 219 W/m² | - |
| 1777702224 | 9.44° C | 80% | 1024.5 hPa | 0 mm | - | 191 W/m² | - |
| 1777701627 | 10° C | 78% | 1024.6 hPa | 0 mm | - | 165 W/m² | - |
| 1777701032 | 8.33° C | 83% | 1024.7 hPa | 0 mm | - | 141 W/m² | - |
| 1777700417 | 8.33° C | 83% | 1024.7 hPa | 0 mm | - | 120 W/m² | - |
| 1777699820 | 9.44° C | 79% | 1024.8 hPa | 0 mm | - | 99 W/m² | - |
| 1777699225 | 7.78° C | 82% | 1024.6 hPa | 0 mm | - | 77 W/m² | - |
| 1777698626 | 7.78° C | 84% | 1024.6 hPa | 0 mm | - | 60 W/m² | - |
| 1777698029 | 6.67° C | 89% | 1024.6 hPa | 0 mm | - | 43 W/m² | - |
| 1777697432 | 5° C | 92% | 1024.7 hPa | 0 mm | - | 33 W/m² | - |
| 1777696818 | 4.44° C | 94% | 1024.7 hPa | 0 mm | - | 27 W/m² | - |
| 1777696221 | 3.89° C | 96% | 1024.8 hPa | 0 mm | - | 21 W/m² | - |
| 1777695625 | 3.89° C | 97% | 1024.9 hPa | 0 mm | - | 15 W/m² | - |
| 1777695027 | 3.33° C | 97% | 1024.9 hPa | 0 mm | - | 11 W/m² | - |
| 1777694430 | 3.33° C | 97% | 1024.9 hPa | 0 mm | - | 7 W/m² | - |
| 1777693817 | 3.33° C | 97% | 1024.9 hPa | 0 mm | - | 3 W/m² | - |
| 1777693220 | 3.89° C | 98% | 1024.9 hPa | 0 mm | - | 1 W/m² | - |
* Rain latest hour (hover to see other rain measurements)
** Current wind speed in m/s (hover to see current wind gust speed)